sensor_id;sensor_type;location;lat;lon;timestamp;temperature;humidity
47805;DHT22;33568;45.286;9.900;2024-03-25T00:00:14;10.80;71.90
47805;DHT22;33568;45.286;9.900;2024-03-25T00:02:41;10.80;72.10
47805;DHT22;33568;45.286;9.900;2024-03-25T00:05:08;10.80;72.10
47805;DHT22;33568;45.286;9.900;2024-03-25T00:07:40;10.80;72.20
47805;DHT22;33568;45.286;9.900;2024-03-25T00:10:07;10.80;72.30
47805;DHT22;33568;45.286;9.900;2024-03-25T00:12:35;10.80;72.20
47805;DHT22;33568;45.286;9.900;2024-03-25T00:15:01;10.80;72.40
47805;DHT22;33568;45.286;9.900;2024-03-25T00:17:29;10.70;72.70
47805;DHT22;33568;45.286;9.900;2024-03-25T00:19:55;10.70;72.70
47805;DHT22;33568;45.286;9.900;2024-03-25T00:22:22;10.70;74.10
47805;DHT22;33568;45.286;9.900;2024-03-25T00:24:51;10.70;72.50
47805;DHT22;33568;45.286;9.900;2024-03-25T00:27:18;10.80;72.50
47805;DHT22;33568;45.286;9.900;2024-03-25T00:29:45;10.70;72.50
47805;DHT22;33568;45.286;9.900;2024-03-25T00:32:11;10.60;72.70
47805;DHT22;33568;45.286;9.900;2024-03-25T00:34:38;10.60;72.80
47805;DHT22;33568;45.286;9.900;2024-03-25T00:37:04;10.60;74.40
47805;DHT22;33568;45.286;9.900;2024-03-25T00:39:31;10.60;72.80
47805;DHT22;33568;45.286;9.900;2024-03-25T00:42:01;10.60;72.90
47805;DHT22;33568;45.286;9.900;2024-03-25T00:44:27;10.50;73.10
47805;DHT22;33568;45.286;9.900;2024-03-25T00:46:54;10.50;74.10
47805;DHT22;33568;45.286;9.900;2024-03-25T00:49:20;10.50;73.70
47805;DHT22;33568;45.286;9.900;2024-03-25T00:51:48;10.50;75.20
47805;DHT22;33568;45.286;9.900;2024-03-25T00:54:14;10.40;73.60
47805;DHT22;33568;45.286;9.900;2024-03-25T00:56:40;10.50;73.60
47805;DHT22;33568;45.286;9.900;2024-03-25T00:59:07;10.40;73.60
47805;DHT22;33568;45.286;9.900;2024-03-25T01:01:33;10.40;73.70
47805;DHT22;33568;45.286;9.900;2024-03-25T01:04:02;10.40;73.90
47805;DHT22;33568;45.286;9.900;2024-03-25T01:06:29;10.30;74.00
47805;DHT22;33568;45.286;9.900;2024-03-25T01:08:55;10.30;74.20
47805;DHT22;33568;45.286;9.900;2024-03-25T01:11:22;10.30;74.30
47805;DHT22;33568;45.286;9.900;2024-03-25T01:13:48;10.30;75.90
47805;DHT22;33568;45.286;9.900;2024-03-25T01:16:15;10.20;74.20
47805;DHT22;33568;45.286;9.900;2024-03-25T01:18:42;10.20;74.20
47805;DHT22;33568;45.286;9.900;2024-03-25T01:21:09;10.20;74.50
47805;DHT22;33568;45.286;9.900;2024-03-25T01:23:35;10.20;74.80
47805;DHT22;33568;45.286;9.900;2024-03-25T01:26:02;10.20;74.80
47805;DHT22;33568;45.286;9.900;2024-03-25T01:28:28;10.20;74.90
47805;DHT22;33568;45.286;9.900;2024-03-25T01:30:55;10.10;77.00
47805;DHT22;33568;45.286;9.900;2024-03-25T01:33:21;10.10;74.70
47805;DHT22;33568;45.286;9.900;2024-03-25T01:35:47;10.10;74.80
47805;DHT22;33568;45.286;9.900;2024-03-25T01:38:14;10.10;76.70
47805;DHT22;33568;45.286;9.900;2024-03-25T01:40:40;10.10;74.70
47805;DHT22;33568;45.286;9.900;2024-03-25T01:43:08;10.00;74.60
47805;DHT22;33568;45.286;9.900;2024-03-25T01:45:34;9.90;74.80
47805;DHT22;33568;45.286;9.900;2024-03-25T01:48:04;9.80;75.10
47805;DHT22;33568;45.286;9.900;2024-03-25T01:50:39;9.70;75.40
47805;DHT22;33568;45.286;9.900;2024-03-25T01:53:09;9.60;75.80
47805;DHT22;33568;45.286;9.900;2024-03-25T01:55:37;9.60;76.10
47805;DHT22;33568;45.286;9.900;2024-03-25T01:58:09;9.50;76.30
47805;DHT22;33568;45.286;9.900;2024-03-25T02:00:36;9.50;76.60
47805;DHT22;33568;45.286;9.900;2024-03-25T02:03:04;9.40;76.70
47805;DHT22;33568;45.286;9.900;2024-03-25T02:05:34;9.30;77.00
47805;DHT22;33568;45.286;9.900;2024-03-25T02:08:01;9.30;77.30
47805;DHT22;33568;45.286;9.900;2024-03-25T02:10:30;9.30;77.30
47805;DHT22;33568;45.286;9.900;2024-03-25T02:12:58;9.30;77.50
47805;DHT22;33568;45.286;9.900;2024-03-25T02:15:24;9.30;77.70
47805;DHT22;33568;45.286;9.900;2024-03-25T02:17:52;9.30;77.80
47805;DHT22;33568;45.286;9.900;2024-03-25T02:20:19;9.30;77.90
47805;DHT22;33568;45.286;9.900;2024-03-25T02:22:45;9.30;77.90
47805;DHT22;33568;45.286;9.900;2024-03-25T02:25:14;9.30;78.10
47805;DHT22;33568;45.286;9.900;2024-03-25T02:27:42;9.30;78.10
47805;DHT22;33568;45.286;9.900;2024-03-25T02:30:10;9.30;78.20
47805;DHT22;33568;45.286;9.900;2024-03-25T02:32:39;9.40;78.20
47805;DHT22;33568;45.286;9.900;2024-03-25T02:35:12;9.40;78.20
47805;DHT22;33568;45.286;9.900;2024-03-25T02:37:40;9.30;78.60
47805;DHT22;33568;45.286;9.900;2024-03-25T02:40:08;9.30;79.10
47805;DHT22;33568;45.286;9.900;2024-03-25T02:42:36;9.30;79.10
47805;DHT22;33568;45.286;9.900;2024-03-25T02:45:03;9.20;79.20
47805;DHT22;33568;45.286;9.900;2024-03-25T02:47:31;9.30;79.40
47805;DHT22;33568;45.286;9.900;2024-03-25T02:49:57;9.30;79.30
47805;DHT22;33568;45.286;9.900;2024-03-25T02:52:24;9.30;79.20
47805;DHT22;33568;45.286;9.900;2024-03-25T02:54:50;9.30;79.20
47805;DHT22;33568;45.286;9.900;2024-03-25T02:57:17;9.40;79.10
47805;DHT22;33568;45.286;9.900;2024-03-25T02:59:44;9.40;78.90
47805;DHT22;33568;45.286;9.900;2024-03-25T03:02:10;9.40;80.10
47805;DHT22;33568;45.286;9.900;2024-03-25T03:04:37;9.40;78.60
47805;DHT22;33568;45.286;9.900;2024-03-25T03:07:03;9.30;78.50
47805;DHT22;33568;45.286;9.900;2024-03-25T03:09:30;9.30;80.30
47805;DHT22;33568;45.286;9.900;2024-03-25T03:11:57;9.30;78.50
47805;DHT22;33568;45.286;9.900;2024-03-25T03:14:23;9.30;78.60
47805;DHT22;33568;45.286;9.900;2024-03-25T03:16:50;9.20;78.50
47805;DHT22;33568;45.286;9.900;2024-03-25T03:19:21;9.10;78.80
47805;DHT22;33568;45.286;9.900;2024-03-25T03:21:47;9.10;79.00
47805;DHT22;33568;45.286;9.900;2024-03-25T03:24:14;9.10;79.00
47805;DHT22;33568;45.286;9.900;2024-03-25T03:26:40;9.00;79.10
47805;DHT22;33568;45.286;9.900;2024-03-25T03:29:06;9.00;80.40
47805;DHT22;33568;45.286;9.900;2024-03-25T03:31:33;8.90;78.90
47805;DHT22;33568;45.286;9.900;2024-03-25T03:33:59;8.90;79.00
47805;DHT22;33568;45.286;9.900;2024-03-25T03:36:25;8.90;79.00
47805;DHT22;33568;45.286;9.900;2024-03-25T03:38:52;8.80;79.10
47805;DHT22;33568;45.286;9.900;2024-03-25T03:41:18;8.80;79.20
47805;DHT22;33568;45.286;9.900;2024-03-25T03:43:45;8.70;79.20
47805;DHT22;33568;45.286;9.900;2024-03-25T03:46:11;8.60;81.60
47805;DHT22;33568;45.286;9.900;2024-03-25T03:48:38;8.50;79.80
47805;DHT22;33568;45.286;9.900;2024-03-25T03:51:05;8.50;79.90
47805;DHT22;33568;45.286;9.900;2024-03-25T03:53:33;8.40;80.10
47805;DHT22;33568;45.286;9.900;2024-03-25T03:56:01;8.30;80.10
47805;DHT22;33568;45.286;9.900;2024-03-25T03:58:29;8.20;80.50
47805;DHT22;33568;45.286;9.900;2024-03-25T04:00:55;8.10;81.00
47805;DHT22;33568;45.286;9.900;2024-03-25T04:03:22;8.00;81.30
47805;DHT22;33568;45.286;9.900;2024-03-25T04:05:48;8.00;81.50
47805;DHT22;33568;45.286;9.900;2024-03-25T04:08:15;8.00;81.70
47805;DHT22;33568;45.286;9.900;2024-03-25T04:10:42;7.90;82.00
47805;DHT22;33568;45.286;9.900;2024-03-25T04:13:09;7.90;85.00
47805;DHT22;33568;45.286;9.900;2024-03-25T04:15:35;7.80;82.90
47805;DHT22;33568;45.286;9.900;2024-03-25T04:18:03;7.80;85.80
47805;DHT22;33568;45.286;9.900;2024-03-25T04:20:35;7.80;82.90
47805;DHT22;33568;45.286;9.900;2024-03-25T04:23:02;7.90;82.50
47805;DHT22;33568;45.286;9.900;2024-03-25T04:25:28;8.00;82.40
47805;DHT22;33568;45.286;9.900;2024-03-25T04:27:55;8.00;84.50
47805;DHT22;33568;45.286;9.900;2024-03-25T04:30:21;8.00;82.40
47805;DHT22;33568;45.286;9.900;2024-03-25T04:32:48;7.90;82.30
47805;DHT22;33568;45.286;9.900;2024-03-25T04:35:14;7.90;84.70
47805;DHT22;33568;45.286;9.900;2024-03-25T04:37:40;7.80;82.90
47805;DHT22;33568;45.286;9.900;2024-03-25T04:40:08;7.90;82.80
47805;DHT22;33568;45.286;9.900;2024-03-25T04:42:34;7.90;82.60
47805;DHT22;33568;45.286;9.900;2024-03-25T04:45:01;8.00;82.50
47805;DHT22;33568;45.286;9.900;2024-03-25T04:47:27;8.00;83.90
47805;DHT22;33568;45.286;9.900;2024-03-25T04:49:53;8.00;82.30
47805;DHT22;33568;45.286;9.900;2024-03-25T04:52:20;8.00;82.30
47805;DHT22;33568;45.286;9.900;2024-03-25T04:54:49;8.10;82.20
47805;DHT22;33568;45.286;9.900;2024-03-25T04:57:16;8.10;82.10
47805;DHT22;33568;45.286;9.900;2024-03-25T04:59:42;8.10;82.20
47805;DHT22;33568;45.286;9.900;2024-03-25T05:02:08;8.10;82.30
47805;DHT22;33568;45.286;9.900;2024-03-25T05:04:35;8.10;82.20
47805;DHT22;33568;45.286;9.900;2024-03-25T05:07:01;8.10;82.10
47805;DHT22;33568;45.286;9.900;2024-03-25T05:09:27;8.10;82.10
47805;DHT22;33568;45.286;9.900;2024-03-25T05:11:54;8.10;82.10
47805;DHT22;33568;45.286;9.900;2024-03-25T05:14:20;8.10;82.10
47805;DHT22;33568;45.286;9.900;2024-03-25T05:16:47;8.00;82.20
47805;DHT22;33568;45.286;9.900;2024-03-25T05:19:13;8.00;82.40
47805;DHT22;33568;45.286;9.900;2024-03-25T05:21:40;8.00;82.70
47805;DHT22;33568;45.286;9.900;2024-03-25T05:24:07;8.00;83.40
47805;DHT22;33568;45.286;9.900;2024-03-25T05:26:33;8.00;83.00
47805;DHT22;33568;45.286;9.900;2024-03-25T05:28:59;8.00;84.50
47805;DHT22;33568;45.286;9.900;2024-03-25T05:31:26;8.10;82.80
47805;DHT22;33568;45.286;9.900;2024-03-25T05:33:52;8.10;82.60
47805;DHT22;33568;45.286;9.900;2024-03-25T05:36:18;8.00;82.60
47805;DHT22;33568;45.286;9.900;2024-03-25T05:38:45;8.00;83.00
47805;DHT22;33568;45.286;9.900;2024-03-25T05:41:11;8.00;83.50
47805;DHT22;33568;45.286;9.900;2024-03-25T05:43:38;8.00;83.70
47805;DHT22;33568;45.286;9.900;2024-03-25T05:46:04;8.00;83.80
47805;DHT22;33568;45.286;9.900;2024-03-25T05:48:31;7.90;86.00
47805;DHT22;33568;45.286;9.900;2024-03-25T05:51:01;7.80;84.40
47805;DHT22;33568;45.286;9.900;2024-03-25T05:53:28;7.70;87.80
47805;DHT22;33568;45.286;9.900;2024-03-25T05:55:55;7.80;85.50
47805;DHT22;33568;45.286;9.900;2024-03-25T05:58:22;7.90;85.60
47805;DHT22;33568;45.286;9.900;2024-03-25T06:00:49;8.00;85.90
47805;DHT22;33568;45.286;9.900;2024-03-25T06:03:17;8.30;86.30
47805;DHT22;33568;45.286;9.900;2024-03-25T06:05:44;8.80;85.90
47805;DHT22;33568;45.286;9.900;2024-03-25T06:08:10;9.40;84.30
47805;DHT22;33568;45.286;9.900;2024-03-25T06:10:46;10.10;82.40
47805;DHT22;33568;45.286;9.900;2024-03-25T06:13:13;10.50;80.70
47805;DHT22;33568;45.286;9.900;2024-03-25T06:15:39;10.50;80.00
47805;DHT22;33568;45.286;9.900;2024-03-25T06:18:05;10.50;80.00
47805;DHT22;33568;45.286;9.900;2024-03-25T06:20:32;10.30;79.60
47805;DHT22;33568;45.286;9.900;2024-03-25T06:22:59;10.00;80.30
47805;DHT22;33568;45.286;9.900;2024-03-25T06:25:25;9.80;81.50
47805;DHT22;33568;45.286;9.900;2024-03-25T06:27:57;9.70;82.20
47805;DHT22;33568;45.286;9.900;2024-03-25T06:30:23;9.60;81.80
47805;DHT22;33568;45.286;9.900;2024-03-25T06:33:08;9.60;81.80
47805;DHT22;33568;45.286;9.900;2024-03-25T06:35:53;9.60;82.10
47805;DHT22;33568;45.286;9.900;2024-03-25T06:38:20;9.60;82.30
47805;DHT22;33568;45.286;9.900;2024-03-25T06:40:47;9.60;82.40
47805;DHT22;33568;45.286;9.900;2024-03-25T06:43:13;9.60;82.70
47805;DHT22;33568;45.286;9.900;2024-03-25T06:45:42;9.70;84.10
47805;DHT22;33568;45.286;9.900;2024-03-25T06:48:08;9.70;82.70
47805;DHT22;33568;45.286;9.900;2024-03-25T06:50:35;9.70;82.70
47805;DHT22;33568;45.286;9.900;2024-03-25T06:53:03;9.80;82.70
47805;DHT22;33568;45.286;9.900;2024-03-25T06:55:29;9.80;82.70
47805;DHT22;33568;45.286;9.900;2024-03-25T06:57:55;9.90;83.90
47805;DHT22;33568;45.286;9.900;2024-03-25T07:00:22;9.90;82.60
47805;DHT22;33568;45.286;9.900;2024-03-25T07:02:49;10.00;82.60
47805;DHT22;33568;45.286;9.900;2024-03-25T07:05:16;10.00;82.50
47805;DHT22;33568;45.286;9.900;2024-03-25T07:07:42;10.10;82.70
47805;DHT22;33568;45.286;9.900;2024-03-25T07:10:08;10.10;83.50
47805;DHT22;33568;45.286;9.900;2024-03-25T07:12:35;10.20;82.70
47805;DHT22;33568;45.286;9.900;2024-03-25T07:15:01;10.20;84.20
47805;DHT22;33568;45.286;9.900;2024-03-25T07:17:27;10.30;82.80
47805;DHT22;33568;45.286;9.900;2024-03-25T07:19:54;10.40;82.80
47805;DHT22;33568;45.286;9.900;2024-03-25T07:22:20;10.50;82.80
47805;DHT22;33568;45.286;9.900;2024-03-25T07:24:47;10.50;82.90
47805;DHT22;33568;45.286;9.900;2024-03-25T07:27:13;10.50;82.90
47805;DHT22;33568;45.286;9.900;2024-03-25T07:29:40;10.60;82.90
47805;DHT22;33568;45.286;9.900;2024-03-25T07:32:06;10.70;83.60
47805;DHT22;33568;45.286;9.900;2024-03-25T07:34:34;10.70;82.70
47805;DHT22;33568;45.286;9.900;2024-03-25T07:37:00;10.90;82.20
47805;DHT22;33568;45.286;9.900;2024-03-25T07:39:27;10.90;81.70
47805;DHT22;33568;45.286;9.900;2024-03-25T07:41:53;11.00;82.10
47805;DHT22;33568;45.286;9.900;2024-03-25T07:44:19;11.00;81.80
47805;DHT22;33568;45.286;9.900;2024-03-25T07:46:46;11.10;81.50
47805;DHT22;33568;45.286;9.900;2024-03-25T07:49:13;11.20;81.20
47805;DHT22;33568;45.286;9.900;2024-03-25T07:51:39;11.30;81.10
47805;DHT22;33568;45.286;9.900;2024-03-25T07:54:06;11.40;81.10
47805;DHT22;33568;45.286;9.900;2024-03-25T07:56:32;11.50;80.60
47805;DHT22;33568;45.286;9.900;2024-03-25T07:59:03;11.60;79.90
47805;DHT22;33568;45.286;9.900;2024-03-25T08:01:30;11.80;79.50
47805;DHT22;33568;45.286;9.900;2024-03-25T08:03:56;11.90;79.20
47805;DHT22;33568;45.286;9.900;2024-03-25T08:06:23;12.00;77.80
47805;DHT22;33568;45.286;9.900;2024-03-25T08:08:49;12.10;78.40
47805;DHT22;33568;45.286;9.900;2024-03-25T08:11:16;12.30;77.60
47805;DHT22;33568;45.286;9.900;2024-03-25T08:13:42;12.40;77.00
47805;DHT22;33568;45.286;9.900;2024-03-25T08:16:09;12.50;76.80
47805;DHT22;33568;45.286;9.900;2024-03-25T08:18:35;12.70;76.40
47805;DHT22;33568;45.286;9.900;2024-03-25T08:21:01;12.80;74.50
47805;DHT22;33568;45.286;9.900;2024-03-25T08:23:28;13.00;76.10
47805;DHT22;33568;45.286;9.900;2024-03-25T08:25:54;13.20;75.90
47805;DHT22;33568;45.286;9.900;2024-03-25T08:28:21;13.40;75.30
47805;DHT22;33568;45.286;9.900;2024-03-25T08:30:47;13.60;75.00
47805;DHT22;33568;45.286;9.900;2024-03-25T08:33:13;13.70;73.70
47805;DHT22;33568;45.286;9.900;2024-03-25T08:35:41;13.80;74.80
47805;DHT22;33568;45.286;9.900;2024-03-25T08:38:08;14.00;74.50
47805;DHT22;33568;45.286;9.900;2024-03-25T08:40:34;14.10;73.50
47805;DHT22;33568;45.286;9.900;2024-03-25T08:43:01;14.40;74.50
47805;DHT22;33568;45.286;9.900;2024-03-25T08:45:27;14.60;74.00
47805;DHT22;33568;45.286;9.900;2024-03-25T08:47:54;14.90;73.70
47805;DHT22;33568;45.286;9.900;2024-03-25T08:50:21;15.20;73.30
47805;DHT22;33568;45.286;9.900;2024-03-25T08:52:47;15.40;72.70
47805;DHT22;33568;45.286;9.900;2024-03-25T08:55:13;15.60;72.30
47805;DHT22;33568;45.286;9.900;2024-03-25T08:57:40;15.70;70.70
47805;DHT22;33568;45.286;9.900;2024-03-25T09:00:07;15.90;72.20
47805;DHT22;33568;45.286;9.900;2024-03-25T09:02:36;16.10;71.80
47805;DHT22;33568;45.286;9.900;2024-03-25T09:05:03;16.20;70.80
47805;DHT22;33568;45.286;9.900;2024-03-25T09:07:33;16.40;70.30
47805;DHT22;33568;45.286;9.900;2024-03-25T09:10:01;16.60;69.80
47805;DHT22;33568;45.286;9.900;2024-03-25T09:12:45;16.90;67.70
47805;DHT22;33568;45.286;9.900;2024-03-25T09:15:12;17.00;69.20
47805;DHT22;33568;45.286;9.900;2024-03-25T09:17:38;17.00;67.00
47805;DHT22;33568;45.286;9.900;2024-03-25T09:20:05;17.30;68.60
47805;DHT22;33568;45.286;9.900;2024-03-25T09:22:52;17.60;67.60
47805;DHT22;33568;45.286;9.900;2024-03-25T09:25:18;17.70;67.00
47805;DHT22;33568;45.286;9.900;2024-03-25T09:27:49;17.70;64.70
47805;DHT22;33568;45.286;9.900;2024-03-25T09:30:16;18.00;66.30
47805;DHT22;33568;45.286;9.900;2024-03-25T09:32:44;18.10;65.90
47805;DHT22;33568;45.286;9.900;2024-03-25T09:35:11;18.00;65.70
47805;DHT22;33568;45.286;9.900;2024-03-25T09:37:38;18.20;65.90
47805;DHT22;33568;45.286;9.900;2024-03-25T09:40:05;18.40;65.30
47805;DHT22;33568;45.286;9.900;2024-03-25T09:42:42;18.60;64.50
47805;DHT22;33568;45.286;9.900;2024-03-25T09:45:15;18.70;62.60
47805;DHT22;33568;45.286;9.900;2024-03-25T09:47:47;18.90;63.20
47805;DHT22;33568;45.286;9.900;2024-03-25T09:50:14;19.20;62.10
47805;DHT22;33568;45.286;9.900;2024-03-25T09:52:46;19.30;61.40
47805;DHT22;33568;45.286;9.900;2024-03-25T09:55:13;19.50;61.30
47805;DHT22;33568;45.286;9.900;2024-03-25T09:57:39;19.60;60.20
47805;DHT22;33568;45.286;9.900;2024-03-25T10:00:09;19.80;59.90
47805;DHT22;33568;45.286;9.900;2024-03-25T10:02:40;19.90;59.00
47805;DHT22;33568;45.286;9.900;2024-03-25T10:05:08;20.00;58.20
47805;DHT22;33568;45.286;9.900;2024-03-25T10:07:35;20.00;57.90
47805;DHT22;33568;45.286;9.900;2024-03-25T10:10:05;20.10;57.80
47805;DHT22;33568;45.286;9.900;2024-03-25T10:12:32;20.30;57.40
47805;DHT22;33568;45.286;9.900;2024-03-25T10:14:59;20.40;57.10
47805;DHT22;33568;45.286;9.900;2024-03-25T10:17:26;20.50;56.30
47805;DHT22;33568;45.286;9.900;2024-03-25T10:19:55;20.70;56.30
47805;DHT22;33568;45.286;9.900;2024-03-25T10:22:21;20.80;53.50
47805;DHT22;33568;45.286;9.900;2024-03-25T10:24:48;20.80;56.10
47805;DHT22;33568;45.286;9.900;2024-03-25T10:27:22;20.90;56.00
47805;DHT22;33568;45.286;9.900;2024-03-25T10:29:52;20.80;55.00
47805;DHT22;33568;45.286;9.900;2024-03-25T10:32:19;20.80;55.20
47805;DHT22;33568;45.286;9.900;2024-03-25T10:34:45;21.00;55.70
47805;DHT22;33568;45.286;9.900;2024-03-25T10:37:13;21.20;54.90
47805;DHT22;33568;45.286;9.900;2024-03-25T10:39:48;21.50;54.80
47805;DHT22;33568;45.286;9.900;2024-03-25T10:42:18;21.60;52.90
47805;DHT22;33568;45.286;9.900;2024-03-25T10:44:45;21.50;52.90
47805;DHT22;33568;45.286;9.900;2024-03-25T10:47:19;21.40;52.80
47805;DHT22;33568;45.286;9.900;2024-03-25T10:49:51;21.50;52.60
47805;DHT22;33568;45.286;9.900;2024-03-25T10:52:24;21.70;51.50
47805;DHT22;33568;45.286;9.900;2024-03-25T10:54:50;21.80;51.50
47805;DHT22;33568;45.286;9.900;2024-03-25T10:57:17;22.00;51.20
47805;DHT22;33568;45.286;9.900;2024-03-25T10:59:45;22.10;50.70
47805;DHT22;33568;45.286;9.900;2024-03-25T11:02:12;22.30;50.10
47805;DHT22;33568;45.286;9.900;2024-03-25T11:04:39;22.40;49.20
47805;DHT22;33568;45.286;9.900;2024-03-25T11:07:09;22.50;49.10
47805;DHT22;33568;45.286;9.900;2024-03-25T11:09:37;22.60;49.70
47805;DHT22;33568;45.286;9.900;2024-03-25T11:12:04;22.70;49.50
47805;DHT22;33568;45.286;9.900;2024-03-25T11:14:31;22.80;48.70
47805;DHT22;33568;45.286;9.900;2024-03-25T11:17:02;22.90;48.70
47805;DHT22;33568;45.286;9.900;2024-03-25T11:19:29;23.00;48.60
47805;DHT22;33568;45.286;9.900;2024-03-25T11:22:10;23.20;48.30
47805;DHT22;33568;45.286;9.900;2024-03-25T11:24:37;23.40;44.60
47805;DHT22;33568;45.286;9.900;2024-03-25T11:27:07;23.50;46.30
47805;DHT22;33568;45.286;9.900;2024-03-25T11:29:35;23.30;45.30
47805;DHT22;33568;45.286;9.900;2024-03-25T11:32:05;23.10;45.40
47805;DHT22;33568;45.286;9.900;2024-03-25T11:34:32;23.20;45.10
47805;DHT22;33568;45.286;9.900;2024-03-25T11:36:58;23.30;44.80
47805;DHT22;33568;45.286;9.900;2024-03-25T11:39:25;23.40;44.00
47805;DHT22;33568;45.286;9.900;2024-03-25T11:41:53;23.40;42.90
47805;DHT22;33568;45.286;9.900;2024-03-25T11:44:19;23.50;42.60
47805;DHT22;33568;45.286;9.900;2024-03-25T11:46:46;23.40;41.10
47805;DHT22;33568;45.286;9.900;2024-03-25T11:49:15;23.20;40.60
47805;DHT22;33568;45.286;9.900;2024-03-25T11:51:43;23.20;40.30
47805;DHT22;33568;45.286;9.900;2024-03-25T11:54:11;23.30;40.90
47805;DHT22;33568;45.286;9.900;2024-03-25T11:56:39;23.70;41.10
47805;DHT22;33568;45.286;9.900;2024-03-25T11:59:06;23.70;39.30
47805;DHT22;33568;45.286;9.900;2024-03-25T12:01:33;23.50;38.70
47805;DHT22;33568;45.286;9.900;2024-03-25T12:04:16;23.30;38.30
47805;DHT22;33568;45.286;9.900;2024-03-25T12:06:44;23.30;36.10
47805;DHT22;33568;45.286;9.900;2024-03-25T12:09:11;23.60;37.80
47805;DHT22;33568;45.286;9.900;2024-03-25T12:11:57;23.70;37.50
47805;DHT22;33568;45.286;9.900;2024-03-25T12:14:24;23.90;37.60
47805;DHT22;33568;45.286;9.900;2024-03-25T12:16:56;23.90;37.40
47805;DHT22;33568;45.286;9.900;2024-03-25T12:19:24;23.90;37.40
47805;DHT22;33568;45.286;9.900;2024-03-25T12:21:59;24.00;37.30
47805;DHT22;33568;45.286;9.900;2024-03-25T12:24:26;24.10;36.80
47805;DHT22;33568;45.286;9.900;2024-03-25T12:26:53;24.30;37.50
47805;DHT22;33568;45.286;9.900;2024-03-25T12:29:19;24.20;37.30
47805;DHT22;33568;45.286;9.900;2024-03-25T12:31:58;24.30;38.00
47805;DHT22;33568;45.286;9.900;2024-03-25T12:34:27;24.10;37.10
47805;DHT22;33568;45.286;9.900;2024-03-25T12:37:01;23.80;37.20
47805;DHT22;33568;45.286;9.900;2024-03-25T12:39:30;23.70;36.00
47805;DHT22;33568;45.286;9.900;2024-03-25T12:41:57;23.70;36.60
47805;DHT22;33568;45.286;9.900;2024-03-25T12:44:23;23.70;36.60
47805;DHT22;33568;45.286;9.900;2024-03-25T12:46:50;23.60;36.60
47805;DHT22;33568;45.286;9.900;2024-03-25T12:49:16;23.70;36.30
47805;DHT22;33568;45.286;9.900;2024-03-25T12:51:43;23.60;35.90
47805;DHT22;33568;45.286;9.900;2024-03-25T12:54:09;23.60;35.90
47805;DHT22;33568;45.286;9.900;2024-03-25T12:56:36;23.60;35.90
47805;DHT22;33568;45.286;9.900;2024-03-25T12:59:02;23.50;35.80
47805;DHT22;33568;45.286;9.900;2024-03-25T13:01:28;23.40;35.90
47805;DHT22;33568;45.286;9.900;2024-03-25T13:03:55;23.20;36.30
47805;DHT22;33568;45.286;9.900;2024-03-25T13:06:21;23.20;36.30
47805;DHT22;33568;45.286;9.900;2024-03-25T13:08:48;23.00;36.30
47805;DHT22;33568;45.286;9.900;2024-03-25T13:11:14;23.00;36.40
47805;DHT22;33568;45.286;9.900;2024-03-25T13:13:40;23.10;36.50
47805;DHT22;33568;45.286;9.900;2024-03-25T13:16:07;23.20;36.60
47805;DHT22;33568;45.286;9.900;2024-03-25T13:18:33;23.10;36.50
47805;DHT22;33568;45.286;9.900;2024-03-25T13:21:00;22.90;36.60
47805;DHT22;33568;45.286;9.900;2024-03-25T13:23:26;22.80;36.80
47805;DHT22;33568;45.286;9.900;2024-03-25T13:25:52;22.70;36.30
47805;DHT22;33568;45.286;9.900;2024-03-25T13:28:19;22.80;36.20
47805;DHT22;33568;45.286;9.900;2024-03-25T13:30:45;22.60;35.80
47805;DHT22;33568;45.286;9.900;2024-03-25T13:33:12;22.60;35.90
47805;DHT22;33568;45.286;9.900;2024-03-25T13:35:38;22.50;35.80
47805;DHT22;33568;45.286;9.900;2024-03-25T13:38:05;22.30;36.00
47805;DHT22;33568;45.286;9.900;2024-03-25T13:40:31;22.20;36.70
47805;DHT22;33568;45.286;9.900;2024-03-25T13:42:57;22.00;37.00
47805;DHT22;33568;45.286;9.900;2024-03-25T13:45:24;21.80;37.30
47805;DHT22;33568;45.286;9.900;2024-03-25T13:47:51;21.70;37.50
47805;DHT22;33568;45.286;9.900;2024-03-25T13:50:17;21.40;37.90
47805;DHT22;33568;45.286;9.900;2024-03-25T13:52:44;21.20;38.30
47805;DHT22;33568;45.286;9.900;2024-03-25T13:55:10;21.20;38.80
47805;DHT22;33568;45.286;9.900;2024-03-25T13:57:36;21.30;38.50
47805;DHT22;33568;45.286;9.900;2024-03-25T14:00:03;21.40;38.90
47805;DHT22;33568;45.286;9.900;2024-03-25T14:02:38;21.30;38.50
47805;DHT22;33568;45.286;9.900;2024-03-25T14:05:05;21.40;38.70
47805;DHT22;33568;45.286;9.900;2024-03-25T14:07:32;21.60;38.60
47805;DHT22;33568;45.286;9.900;2024-03-25T14:09:58;21.40;38.00
47805;DHT22;33568;45.286;9.900;2024-03-25T14:12:25;21.40;38.30
47805;DHT22;33568;45.286;9.900;2024-03-25T14:14:52;21.50;38.60
47805;DHT22;33568;45.286;9.900;2024-03-25T14:17:18;21.60;38.50
47805;DHT22;33568;45.286;9.900;2024-03-25T14:19:45;21.60;38.30
47805;DHT22;33568;45.286;9.900;2024-03-25T14:22:11;21.50;38.10
47805;DHT22;33568;45.286;9.900;2024-03-25T14:24:38;21.30;37.80
47805;DHT22;33568;45.286;9.900;2024-03-25T14:27:05;21.30;38.20
47805;DHT22;33568;45.286;9.900;2024-03-25T14:29:31;21.30;38.40
47805;DHT22;33568;45.286;9.900;2024-03-25T14:31:58;21.40;38.10
47805;DHT22;33568;45.286;9.900;2024-03-25T14:34:24;21.20;37.90
47805;DHT22;33568;45.286;9.900;2024-03-25T14:36:50;20.90;36.10
47805;DHT22;33568;45.286;9.900;2024-03-25T14:39:16;20.80;38.30
47805;DHT22;33568;45.286;9.900;2024-03-25T14:41:45;20.90;38.30
47805;DHT22;33568;45.286;9.900;2024-03-25T14:44:11;21.10;38.10
47805;DHT22;33568;45.286;9.900;2024-03-25T14:46:37;21.10;38.30
47805;DHT22;33568;45.286;9.900;2024-03-25T14:49:03;20.90;38.30
47805;DHT22;33568;45.286;9.900;2024-03-25T14:51:30;20.90;38.90
47805;DHT22;33568;45.286;9.900;2024-03-25T14:53:56;20.90;38.80
47805;DHT22;33568;45.286;9.900;2024-03-25T14:56:23;20.80;38.70
47805;DHT22;33568;45.286;9.900;2024-03-25T14:58:50;20.60;38.40
47805;DHT22;33568;45.286;9.900;2024-03-25T15:01:16;20.40;38.40
47805;DHT22;33568;45.286;9.900;2024-03-25T15:03:42;20.20;37.60
47805;DHT22;33568;45.286;9.900;2024-03-25T15:06:08;20.10;38.80
47805;DHT22;33568;45.286;9.900;2024-03-25T15:08:35;20.00;38.00
47805;DHT22;33568;45.286;9.900;2024-03-25T15:11:03;19.90;39.20
47805;DHT22;33568;45.286;9.900;2024-03-25T15:13:31;19.90;39.20
47805;DHT22;33568;45.286;9.900;2024-03-25T15:15:57;19.90;39.00
47805;DHT22;33568;45.286;9.900;2024-03-25T15:18:24;19.80;38.70
47805;DHT22;33568;45.286;9.900;2024-03-25T15:21:03;19.70;38.70
47805;DHT22;33568;45.286;9.900;2024-03-25T15:23:31;19.70;38.50
47805;DHT22;33568;45.286;9.900;2024-03-25T15:25:58;19.70;39.00
47805;DHT22;33568;45.286;9.900;2024-03-25T15:28:25;19.70;39.20
47805;DHT22;33568;45.286;9.900;2024-03-25T15:30:53;19.60;39.10
47805;DHT22;33568;45.286;9.900;2024-03-25T15:33:20;19.40;39.10
47805;DHT22;33568;45.286;9.900;2024-03-25T15:35:46;19.30;39.60